sensor_id;sensor_type;location;lat;lon;timestamp;P1;durP1;ratioP1;P2;durP2;ratioP2
75603;SDS011;64187;51.010;13.792;2023-08-17T00:02:31;11.45;;;9.40;;
75603;SDS011;64187;51.010;13.792;2023-08-17T00:07:30;17.40;;;11.45;;
75603;SDS011;64187;51.010;13.792;2023-08-17T00:12:30;13.68;;;10.00;;
75603;SDS011;64187;51.010;13.792;2023-08-17T00:17:29;12.38;;;9.90;;
75603;SDS011;64187;51.010;13.792;2023-08-17T00:22:29;14.15;;;10.73;;
75603;SDS011;64187;51.010;13.792;2023-08-17T00:27:28;11.88;;;9.38;;
75603;SDS011;64187;51.010;13.792;2023-08-17T00:32:27;11.48;;;9.02;;
75603;SDS011;64187;51.010;13.792;2023-08-17T00:37:26;11.60;;;9.32;;
75603;SDS011;64187;51.010;13.792;2023-08-17T00:42:26;12.25;;;9.57;;
75603;SDS011;64187;51.010;13.792;2023-08-17T00:47:25;13.15;;;10.15;;
75603;SDS011;64187;51.010;13.792;2023-08-17T00:52:24;10.88;;;8.93;;
75603;SDS011;64187;51.010;13.792;2023-08-17T00:57:24;13.80;;;9.68;;
75603;SDS011;64187;51.010;13.792;2023-08-17T01:02:24;12.25;;;10.15;;
75603;SDS011;64187;51.010;13.792;2023-08-17T01:07:23;15.68;;;11.13;;
75603;SDS011;64187;51.010;13.792;2023-08-17T01:12:30;12.95;;;10.32;;
75603;SDS011;64187;51.010;13.792;2023-08-17T01:17:37;16.38;;;11.80;;
75603;SDS011;64187;51.010;13.792;2023-08-17T01:22:49;19.38;;;11.73;;
75603;SDS011;64187;51.010;13.792;2023-08-17T01:27:50;14.75;;;10.95;;
75603;SDS011;64187;51.010;13.792;2023-08-17T01:38:07;13.63;;;11.82;;
75603;SDS011;64187;51.010;13.792;2023-08-17T01:43:10;16.17;;;12.38;;
75603;SDS011;64187;51.010;13.792;2023-08-17T01:48:10;14.63;;;11.60;;
75603;SDS011;64187;51.010;13.792;2023-08-17T01:53:09;14.10;;;11.82;;
75603;SDS011;64187;51.010;13.792;2023-08-17T01:58:09;16.00;;;11.88;;
75603;SDS011;64187;51.010;13.792;2023-08-17T02:03:08;17.38;;;11.75;;
75603;SDS011;64187;51.010;13.792;2023-08-17T02:08:07;15.27;;;13.13;;
75603;SDS011;64187;51.010;13.792;2023-08-17T02:13:07;16.77;;;12.73;;
75603;SDS011;64187;51.010;13.792;2023-08-17T02:18:16;18.63;;;13.30;;
75603;SDS011;64187;51.010;13.792;2023-08-17T02:23:15;15.02;;;12.50;;
75603;SDS011;64187;51.010;13.792;2023-08-17T02:28:14;17.15;;;12.73;;
75603;SDS011;64187;51.010;13.792;2023-08-17T02:33:13;16.70;;;12.27;;
75603;SDS011;64187;51.010;13.792;2023-08-17T02:38:12;13.75;;;10.98;;
75603;SDS011;64187;51.010;13.792;2023-08-17T02:43:11;17.00;;;12.20;;
75603;SDS011;64187;51.010;13.792;2023-08-17T02:48:10;15.48;;;12.20;;
75603;SDS011;64187;51.010;13.792;2023-08-17T04:02:46;15.38;;;12.00;;
75603;SDS011;64187;51.010;13.792;2023-08-17T04:07:49;14.90;;;11.02;;
75603;SDS011;64187;51.010;13.792;2023-08-17T04:30:02;10.85;;;7.95;;
75603;SDS011;64187;51.010;13.792;2023-08-17T05:03:23;14.98;;;10.32;;
75603;SDS011;64187;51.010;13.792;2023-08-17T05:08:29;18.10;;;12.65;;
75603;SDS011;64187;51.010;13.792;2023-08-17T05:13:32;16.48;;;11.45;;
75603;SDS011;64187;51.010;13.792;2023-08-17T05:18:37;13.02;;;11.35;;
75603;SDS011;64187;51.010;13.792;2023-08-17T05:34:04;14.65;;;12.10;;
75603;SDS011;64187;51.010;13.792;2023-08-17T05:39:09;18.75;;;12.18;;
75603;SDS011;64187;51.010;13.792;2023-08-17T05:44:09;16.45;;;11.43;;
75603;SDS011;64187;51.010;13.792;2023-08-17T05:49:09;15.88;;;11.57;;
75603;SDS011;64187;51.010;13.792;2023-08-17T05:54:08;14.50;;;12.60;;
75603;SDS011;64187;51.010;13.792;2023-08-17T05:59:07;14.82;;;11.23;;
75603;SDS011;64187;51.010;13.792;2023-08-17T06:04:06;16.70;;;10.95;;
75603;SDS011;64187;51.010;13.792;2023-08-17T06:09:05;13.35;;;10.75;;
75603;SDS011;64187;51.010;13.792;2023-08-17T06:14:24;14.18;;;12.02;;
75603;SDS011;64187;51.010;13.792;2023-08-17T06:19:23;10.77;;;9.20;;
75603;SDS011;64187;51.010;13.792;2023-08-17T06:24:22;14.27;;;11.02;;
75603;SDS011;64187;51.010;13.792;2023-08-17T06:29:21;12.38;;;10.23;;
75603;SDS011;64187;51.010;13.792;2023-08-17T06:34:20;13.30;;;11.25;;
75603;SDS011;64187;51.010;13.792;2023-08-17T06:39:19;14.43;;;10.18;;
75603;SDS011;64187;51.010;13.792;2023-08-17T06:49:46;12.75;;;10.90;;
75603;SDS011;64187;51.010;13.792;2023-08-17T07:00:10;11.40;;;10.13;;
75603;SDS011;64187;51.010;13.792;2023-08-17T07:05:13;14.88;;;10.60;;
75603;SDS011;64187;51.010;13.792;2023-08-17T07:10:13;11.20;;;9.98;;
75603;SDS011;64187;51.010;13.792;2023-08-17T07:20:36;11.02;;;9.35;;
75603;SDS011;64187;51.010;13.792;2023-08-17T07:30:59;11.68;;;10.27;;
75603;SDS011;64187;51.010;13.792;2023-08-17T07:58:31;11.82;;;10.57;;
75603;SDS011;64187;51.010;13.792;2023-08-17T08:08:51;10.23;;;8.68;;
75603;SDS011;64187;51.010;13.792;2023-08-17T08:35:53;11.25;;;9.15;;
75603;SDS011;64187;51.010;13.792;2023-08-17T08:40:52;9.00;;;8.10;;
75603;SDS011;64187;51.010;13.792;2023-08-17T08:51:28;10.45;;;7.80;;
75603;SDS011;64187;51.010;13.792;2023-08-17T08:56:33;19.45;;;9.60;;
75603;SDS011;64187;51.010;13.792;2023-08-17T09:01:36;9.38;;;8.43;;
75603;SDS011;64187;51.010;13.792;2023-08-17T09:12:13;9.95;;;8.38;;
75603;SDS011;64187;51.010;13.792;2023-08-17T09:17:38;10.40;;;9.13;;
75603;SDS011;64187;51.010;13.792;2023-08-17T09:28:38;9.75;;;8.75;;
75603;SDS011;64187;51.010;13.792;2023-08-17T09:45:18;9.68;;;8.68;;
75603;SDS011;64187;51.010;13.792;2023-08-17T09:50:17;9.13;;;8.23;;
75603;SDS011;64187;51.010;13.792;2023-08-17T09:55:21;9.65;;;8.68;;
75603;SDS011;64187;51.010;13.792;2023-08-17T10:00:21;9.68;;;8.77;;
75603;SDS011;64187;51.010;13.792;2023-08-17T10:05:26;9.25;;;8.38;;
75603;SDS011;64187;51.010;13.792;2023-08-17T10:10:29;9.43;;;8.27;;
75603;SDS011;64187;51.010;13.792;2023-08-17T10:15:29;9.68;;;8.77;;
75603;SDS011;64187;51.010;13.792;2023-08-17T10:20:32;9.30;;;8.35;;
75603;SDS011;64187;51.010;13.792;2023-08-17T10:31:08;9.65;;;8.65;;
75603;SDS011;64187;51.010;13.792;2023-08-17T10:41:50;9.45;;;8.65;;
75603;SDS011;64187;51.010;13.792;2023-08-17T10:46:50;11.18;;;10.07;;
75603;SDS011;64187;51.010;13.792;2023-08-17T10:52:02;10.93;;;9.82;;
75603;SDS011;64187;51.010;13.792;2023-08-17T11:15:21;10.32;;;9.23;;
75603;SDS011;64187;51.010;13.792;2023-08-17T11:20:22;10.57;;;9.52;;
75603;SDS011;64187;51.010;13.792;2023-08-17T11:30:29;10.40;;;9.50;;
75603;SDS011;64187;51.010;13.792;2023-08-17T11:35:28;10.18;;;9.27;;
75603;SDS011;64187;51.010;13.792;2023-08-17T11:40:27;10.95;;;9.70;;
75603;SDS011;64187;51.010;13.792;2023-08-17T12:02:08;9.60;;;8.50;;
75603;SDS011;64187;51.010;13.792;2023-08-17T12:07:09;10.82;;;9.40;;
75603;SDS011;64187;51.010;13.792;2023-08-17T12:12:08;10.40;;;8.50;;
75603;SDS011;64187;51.010;13.792;2023-08-17T12:27:59;8.93;;;8.02;;
75603;SDS011;64187;51.010;13.792;2023-08-17T12:49:35;9.15;;;8.30;;
75603;SDS011;64187;51.010;13.792;2023-08-17T13:10:53;8.65;;;7.78;;
75603;SDS011;64187;51.010;13.792;2023-08-17T13:31:59;8.68;;;7.78;;
75603;SDS011;64187;51.010;13.792;2023-08-17T13:36:59;8.70;;;7.85;;
75603;SDS011;64187;51.010;13.792;2023-08-17T13:41:58;8.57;;;7.80;;
75603;SDS011;64187;51.010;13.792;2023-08-17T13:46:57;9.02;;;8.13;;
75603;SDS011;64187;51.010;13.792;2023-08-17T13:51:56;9.38;;;8.52;;
75603;SDS011;64187;51.010;13.792;2023-08-17T13:56:55;10.80;;;9.52;;
75603;SDS011;64187;51.010;13.792;2023-08-17T14:01:54;10.05;;;9.05;;
75603;SDS011;64187;51.010;13.792;2023-08-17T14:06:54;9.95;;;9.05;;
75603;SDS011;64187;51.010;13.792;2023-08-17T14:11:53;9.70;;;8.48;;
75603;SDS011;64187;51.010;13.792;2023-08-17T14:16:52;9.40;;;8.50;;
75603;SDS011;64187;51.010;13.792;2023-08-17T14:21:51;9.57;;;8.32;;
75603;SDS011;64187;51.010;13.792;2023-08-17T14:26:51;10.13;;;9.13;;
75603;SDS011;64187;51.010;13.792;2023-08-17T14:31:50;10.90;;;9.77;;
75603;SDS011;64187;51.010;13.792;2023-08-17T14:36:54;9.52;;;8.40;;
75603;SDS011;64187;51.010;13.792;2023-08-17T14:41:53;9.35;;;8.43;;
75603;SDS011;64187;51.010;13.792;2023-08-17T14:46:52;8.95;;;8.13;;
75603;SDS011;64187;51.010;13.792;2023-08-17T14:51:51;8.82;;;8.02;;
75603;SDS011;64187;51.010;13.792;2023-08-17T14:56:51;8.93;;;8.13;;
75603;SDS011;64187;51.010;13.792;2023-08-17T15:01:54;9.35;;;8.35;;
75603;SDS011;64187;51.010;13.792;2023-08-17T15:06:55;9.23;;;8.40;;
75603;SDS011;64187;51.010;13.792;2023-08-17T15:11:54;8.77;;;7.65;;
75603;SDS011;64187;51.010;13.792;2023-08-17T15:16:53;8.32;;;7.53;;
75603;SDS011;64187;51.010;13.792;2023-08-17T15:21:52;11.18;;;8.23;;
75603;SDS011;64187;51.010;13.792;2023-08-17T15:26:51;8.57;;;7.75;;
75603;SDS011;64187;51.010;13.792;2023-08-17T15:31:51;9.65;;;8.50;;
75603;SDS011;64187;51.010;13.792;2023-08-17T15:36:50;8.50;;;7.45;;
75603;SDS011;64187;51.010;13.792;2023-08-17T15:41:49;9.13;;;7.90;;
75603;SDS011;64187;51.010;13.792;2023-08-17T15:46:48;9.63;;;8.70;;
75603;SDS011;64187;51.010;13.792;2023-08-17T15:51:47;10.18;;;9.13;;
75603;SDS011;64187;51.010;13.792;2023-08-17T15:56:46;11.13;;;10.02;;
75603;SDS011;64187;51.010;13.792;2023-08-17T16:01:45;9.77;;;8.88;;
75603;SDS011;64187;51.010;13.792;2023-08-17T16:06:45;9.45;;;8.40;;
75603;SDS011;64187;51.010;13.792;2023-08-17T16:11:44;9.88;;;8.95;;
75603;SDS011;64187;51.010;13.792;2023-08-17T16:16:43;11.30;;;10.18;;
75603;SDS011;64187;51.010;13.792;2023-08-17T16:21:42;10.57;;;9.68;;
75603;SDS011;64187;51.010;13.792;2023-08-17T16:26:41;10.05;;;8.95;;
75603;SDS011;64187;51.010;13.792;2023-08-17T16:31:40;10.93;;;9.95;;
75603;SDS011;64187;51.010;13.792;2023-08-17T16:36:40;11.60;;;10.40;;
75603;SDS011;64187;51.010;13.792;2023-08-17T16:41:39;13.30;;;10.55;;
75603;SDS011;64187;51.010;13.792;2023-08-17T16:46:38;10.32;;;9.38;;
75603;SDS011;64187;51.010;13.792;2023-08-17T16:51:37;15.95;;;14.35;;
75603;SDS011;64187;51.010;13.792;2023-08-17T16:56:37;10.07;;;9.10;;
75603;SDS011;64187;51.010;13.792;2023-08-17T17:01:42;11.50;;;10.40;;
75603;SDS011;64187;51.010;13.792;2023-08-17T17:06:40;10.63;;;9.63;;
75603;SDS011;64187;51.010;13.792;2023-08-17T17:11:40;10.02;;;8.60;;
75603;SDS011;64187;51.010;13.792;2023-08-17T17:16:39;9.88;;;9.07;;
75603;SDS011;64187;51.010;13.792;2023-08-17T17:21:38;10.15;;;9.25;;
75603;SDS011;64187;51.010;13.792;2023-08-17T17:26:37;9.90;;;8.20;;
75603;SDS011;64187;51.010;13.792;2023-08-17T17:31:36;10.70;;;9.60;;
75603;SDS011;64187;51.010;13.792;2023-08-17T17:36:36;12.02;;;10.93;;
75603;SDS011;64187;51.010;13.792;2023-08-17T17:41:35;11.77;;;10.75;;
75603;SDS011;64187;51.010;13.792;2023-08-17T17:46:34;13.15;;;10.95;;
75603;SDS011;64187;51.010;13.792;2023-08-17T17:51:33;11.35;;;10.25;;
75603;SDS011;64187;51.010;13.792;2023-08-17T17:56:42;11.23;;;9.80;;
75603;SDS011;64187;51.010;13.792;2023-08-17T18:01:42;9.88;;;8.95;;
75603;SDS011;64187;51.010;13.792;2023-08-17T18:06:41;10.90;;;8.43;;
75603;SDS011;64187;51.010;13.792;2023-08-17T18:11:40;8.73;;;7.82;;
75603;SDS011;64187;51.010;13.792;2023-08-17T18:16:39;8.98;;;7.80;;
75603;SDS011;64187;51.010;13.792;2023-08-17T18:21:39;9.55;;;8.40;;
75603;SDS011;64187;51.010;13.792;2023-08-17T18:26:38;10.93;;;7.88;;
75603;SDS011;64187;51.010;13.792;2023-08-17T18:31:36;8.25;;;7.47;;
75603;SDS011;64187;51.010;13.792;2023-08-17T18:36:39;9.75;;;8.75;;
75603;SDS011;64187;51.010;13.792;2023-08-17T18:41:38;9.82;;;8.30;;
75603;SDS011;64187;51.010;13.792;2023-08-17T18:46:37;10.15;;;8.30;;
75603;SDS011;64187;51.010;13.792;2023-08-17T18:51:39;9.48;;;8.45;;
75603;SDS011;64187;51.010;13.792;2023-08-17T18:56:38;8.98;;;7.95;;
75603;SDS011;64187;51.010;13.792;2023-08-17T19:01:37;8.40;;;7.60;;
75603;SDS011;64187;51.010;13.792;2023-08-17T19:06:36;9.48;;;8.55;;
75603;SDS011;64187;51.010;13.792;2023-08-17T19:11:35;8.38;;;7.43;;
75603;SDS011;64187;51.010;13.792;2023-08-17T19:16:34;7.32;;;6.60;;
75603;SDS011;64187;51.010;13.792;2023-08-17T19:21:34;7.00;;;5.70;;
75603;SDS011;64187;51.010;13.792;2023-08-17T19:26:33;5.97;;;5.18;;
75603;SDS011;64187;51.010;13.792;2023-08-17T19:31:32;7.60;;;6.60;;
75603;SDS011;64187;51.010;13.792;2023-08-17T19:36:31;7.05;;;5.15;;
75603;SDS011;64187;51.010;13.792;2023-08-17T19:41:30;6.32;;;5.75;;
75603;SDS011;64187;51.010;13.792;2023-08-17T19:46:29;6.30;;;5.70;;
75603;SDS011;64187;51.010;13.792;2023-08-17T19:51:29;5.82;;;5.28;;
75603;SDS011;64187;51.010;13.792;2023-08-17T19:56:33;6.32;;;5.32;;
75603;SDS011;64187;51.010;13.792;2023-08-17T20:08:01;6.35;;;5.78;;
75603;SDS011;64187;51.010;13.792;2023-08-17T20:13:01;6.55;;;5.40;;
75603;SDS011;64187;51.010;13.792;2023-08-17T20:18:00;5.97;;;5.38;;
75603;SDS011;64187;51.010;13.792;2023-08-17T20:23:04;6.10;;;5.50;;
75603;SDS011;64187;51.010;13.792;2023-08-17T20:28:03;6.18;;;5.45;;
75603;SDS011;64187;51.010;13.792;2023-08-17T20:33:02;5.60;;;5.00;;
75603;SDS011;64187;51.010;13.792;2023-08-17T20:38:02;5.30;;;4.80;;
75603;SDS011;64187;51.010;13.792;2023-08-17T20:43:15;4.78;;;4.28;;
75603;SDS011;64187;51.010;13.792;2023-08-17T20:48:14;5.78;;;5.28;;
75603;SDS011;64187;51.010;13.792;2023-08-17T20:53:13;7.13;;;5.25;;
75603;SDS011;64187;51.010;13.792;2023-08-17T20:58:13;6.53;;;5.82;;
75603;SDS011;64187;51.010;13.792;2023-08-17T21:03:12;6.40;;;5.25;;
75603;SDS011;64187;51.010;13.792;2023-08-17T21:08:11;6.07;;;5.53;;
75603;SDS011;64187;51.010;13.792;2023-08-17T21:13:11;6.97;;;5.22;;
75603;SDS011;64187;51.010;13.792;2023-08-17T21:18:10;6.97;;;5.47;;
75603;SDS011;64187;51.010;13.792;2023-08-17T21:23:09;6.22;;;5.50;;
75603;SDS011;64187;51.010;13.792;2023-08-17T21:28:09;6.28;;;5.65;;
75603;SDS011;64187;51.010;13.792;2023-08-17T21:33:08;6.82;;;6.13;;
75603;SDS011;64187;51.010;13.792;2023-08-17T21:38:07;6.18;;;5.50;;
75603;SDS011;64187;51.010;13.792;2023-08-17T21:43:06;7.97;;;7.10;;
75603;SDS011;64187;51.010;13.792;2023-08-17T21:48:05;9.50;;;6.15;;
75603;SDS011;64187;51.010;13.792;2023-08-17T21:53:04;7.70;;;6.15;;
75603;SDS011;64187;51.010;13.792;2023-08-17T21:58:03;10.20;;;6.40;;
75603;SDS011;64187;51.010;13.792;2023-08-17T22:03:02;8.05;;;6.78;;
75603;SDS011;64187;51.010;13.792;2023-08-17T22:08:03;8.70;;;6.65;;
75603;SDS011;64187;51.010;13.792;2023-08-17T22:13:02;8.15;;;6.55;;
75603;SDS011;64187;51.010;13.792;2023-08-17T22:18:02;11.13;;;6.93;;
75603;SDS011;64187;51.010;13.792;2023-08-17T22:23:01;10.25;;;8.10;;
75603;SDS011;64187;51.010;13.792;2023-08-17T22:28:00;9.00;;;7.88;;
75603;SDS011;64187;51.010;13.792;2023-08-17T22:32:59;8.57;;;7.55;;
75603;SDS011;64187;51.010;13.792;2023-08-17T22:37:58;8.82;;;7.18;;
75603;SDS011;64187;51.010;13.792;2023-08-17T22:42:57;9.02;;;7.05;;
75603;SDS011;64187;51.010;13.792;2023-08-17T22:47:56;9.13;;;8.23;;
75603;SDS011;64187;51.010;13.792;2023-08-17T22:52:55;8.70;;;7.75;;
75603;SDS011;64187;51.010;13.792;2023-08-17T22:57:54;12.80;;;8.57;;
75603;SDS011;64187;51.010;13.792;2023-08-17T23:02:53;8.85;;;7.63;;
75603;SDS011;64187;51.010;13.792;2023-08-17T23:07:52;8.15;;;7.13;;
75603;SDS011;64187;51.010;13.792;2023-08-17T23:12:51;9.73;;;7.40;;
75603;SDS011;64187;51.010;13.792;2023-08-17T23:17:50;9.95;;;7.25;;
75603;SDS011;64187;51.010;13.792;2023-08-17T23:22:49;9.30;;;8.23;;
75603;SDS011;64187;51.010;13.792;2023-08-17T23:27:49;10.50;;;7.70;;
75603;SDS011;64187;51.010;13.792;2023-08-17T23:32:47;9.35;;;8.15;;
75603;SDS011;64187;51.010;13.792;2023-08-17T23:37:50;10.60;;;8.25;;
75603;SDS011;64187;51.010;13.792;2023-08-17T23:42:49;9.60;;;7.97;;
75603;SDS011;64187;51.010;13.792;2023-08-17T23:47:48;10.13;;;7.70;;
75603;SDS011;64187;51.010;13.792;2023-08-17T23:52:47;10.50;;;8.27;;
75603;SDS011;64187;51.010;13.792;2023-08-17T23:57:46;8.52;;;7.50;;
